KITH/ITH METAR and TAF weather

Enter ICAO airport designator
Station Type Date Time Source
KITH METAR 2020/04/05 12:56 UTC NOAA

KITH 051256Z 00000KT 10SM OVC045 08/08 A3003 RMK AO2 RAB1158E17 SLP173 P0000 T00780078


Station Type Date Time Source
KITH Decoded METAR 2020/04/05 12:56 UTC NOAA

Ithaca, Ithaca Tompkins Regional Airport, NY, United States (KITH) 42-29-27N 076-27-30W
Apr 05, 2020 - 08:56 AM EDT / 2020.04.05 1256 UTC
Wind: Calm:0
Visibility: 10 mile(s):0
Sky conditions: overcast
Precipitation last hour: A trace
Temperature: 46.0 F (7.8 C)
Dew Point: 46.0 F (7.8 C)
Relative Humidity: 100%
Pressure (altimeter): 30.03 in. Hg (1016 hPa)
ob: KITH 051256Z 00000KT 10SM OVC045 08/08 A3003 RMK AO2 RAB1158E17 SLP173 P0000 T00780078
cycle: 13

Station Type Date Time Source
KITH TAF 2020/04/05 12:24 UTC NOAA

TAF KITH 051121Z 0512/0612 VRB03KT P6SM SCT030 BKN050
FM051700 29005KT P6SM -SHRA BKN026
TEMPO 0519/0522 6SM -SHRA BR BKN018
FM052300 32008KT P6SM FEW030 BKN050
FM060300 33004KT P6SM FEW050 SCT100

Example: see airport list